createdAt,value
2018-12-20T00:01:21.724Z,20.13
2018-12-20T00:03:50.308Z,17.10
2018-12-20T00:06:18.471Z,18.50
2018-12-20T00:08:46.704Z,21.87
2018-12-20T00:11:15.077Z,17.70
2018-12-20T00:13:43.273Z,18.43
2018-12-20T00:16:11.422Z,16.37
2018-12-20T00:18:39.622Z,16.80
2018-12-20T00:21:07.750Z,19.33
2018-12-20T00:23:35.868Z,19.17
2018-12-20T00:26:04.147Z,18.97
2018-12-20T00:28:32.420Z,20.50
2018-12-20T00:31:00.862Z,18.00
2018-12-20T00:33:29.154Z,19.10
2018-12-20T00:35:57.560Z,19.23
2018-12-20T00:38:25.794Z,19.50
2018-12-20T00:40:53.962Z,16.37
2018-12-20T00:43:22.178Z,14.30
2018-12-20T00:45:50.590Z,16.03
2018-12-20T00:48:18.894Z,13.13
2018-12-20T00:50:47.049Z,17.00
2018-12-20T00:53:15.201Z,17.53
2018-12-20T00:55:43.409Z,16.97
2018-12-20T00:58:11.623Z,14.90
2018-12-20T01:00:39.905Z,15.90
2018-12-20T01:03:08.117Z,14.10
2018-12-20T01:05:36.388Z,16.73
2018-12-20T01:08:04.860Z,16.57
2018-12-20T01:10:33.131Z,13.87
2018-12-20T01:13:01.406Z,20.40
2018-12-20T01:15:29.956Z,15.47
2018-12-20T01:17:58.181Z,15.80
2018-12-20T01:20:26.345Z,16.00
2018-12-20T01:22:55.495Z,22.13
2018-12-20T01:25:23.645Z,13.73
2018-12-20T01:27:51.894Z,13.07
2018-12-20T01:30:20.096Z,13.00
2018-12-20T01:32:48.417Z,16.33
2018-12-20T01:35:16.625Z,15.67
2018-12-20T01:37:44.885Z,16.43
2018-12-20T01:40:13.299Z,13.53
2018-12-20T01:42:41.700Z,11.80
2018-12-20T01:45:10.164Z,20.30
2018-12-20T01:47:38.390Z,15.73
2018-12-20T01:50:07.241Z,12.53
2018-12-20T01:52:35.436Z,16.80
2018-12-20T01:55:03.818Z,11.90
2018-12-20T01:57:32.187Z,14.23
2018-12-20T02:00:00.361Z,11.87
2018-12-20T02:02:28.566Z,11.03
2018-12-20T02:04:56.938Z,12.73
2018-12-20T02:07:25.390Z,10.63
2018-12-20T02:09:53.833Z,13.40
2018-12-20T02:12:22.260Z,12.80
2018-12-20T02:14:50.561Z,12.33
2018-12-20T02:17:18.908Z,10.70
2018-12-20T02:19:47.223Z,12.10
2018-12-20T02:22:15.445Z,11.50
2018-12-20T02:24:43.875Z,9.77
2018-12-20T02:27:12.276Z,10.67
2018-12-20T02:29:40.651Z,12.57
2018-12-20T02:32:09.084Z,11.93
2018-12-20T02:34:37.556Z,10.70
2018-12-20T02:37:06.003Z,10.37
2018-12-20T02:39:34.213Z,13.60
2018-12-20T02:42:02.506Z,14.50
2018-12-20T02:44:31.177Z,11.30
2018-12-20T02:46:59.652Z,14.60
2018-12-20T02:49:28.003Z,14.10
2018-12-20T02:51:56.304Z,13.97
2018-12-20T02:54:24.712Z,13.80
2018-12-20T02:56:53.048Z,13.13
2018-12-20T02:59:21.196Z,12.07
2018-12-20T03:01:49.398Z,15.23
2018-12-20T03:04:17.601Z,8.20
2018-12-20T03:06:46.098Z,6.10
2018-12-20T03:09:14.739Z,5.13
2018-12-20T03:11:42.994Z,6.27
2018-12-20T03:14:11.405Z,8.10
2018-12-20T03:16:40.019Z,6.53
2018-12-20T03:19:08.294Z,6.67
2018-12-20T03:21:36.605Z,5.47
2018-12-20T03:24:04.805Z,7.40
2018-12-20T03:26:32.921Z,6.67
2018-12-20T03:29:01.073Z,6.20
2018-12-20T03:31:29.737Z,5.50
2018-12-20T03:33:58.287Z,7.20
2018-12-20T03:36:26.577Z,6.93
2018-12-20T03:38:54.789Z,7.67
2018-12-20T03:41:23.049Z,7.43
2018-12-20T03:43:51.297Z,8.40
2018-12-20T03:46:19.572Z,6.93
2018-12-20T03:48:47.870Z,8.93
2018-12-20T03:51:16.447Z,7.53
2018-12-20T03:53:44.849Z,7.20
2018-12-20T03:56:13.113Z,11.40
2018-12-20T03:58:41.252Z,6.23
2018-12-20T04:01:09.453Z,8.67
2018-12-20T04:03:37.681Z,7.63
2018-12-20T04:06:06.233Z,6.97
2018-12-20T04:08:34.449Z,7.53
2018-12-20T04:11:02.619Z,8.90
2018-12-20T04:13:30.800Z,8.50
2018-12-20T04:15:59.002Z,6.67
2018-12-20T04:18:27.218Z,9.10
2018-12-20T04:20:55.400Z,7.53
2018-12-20T04:23:23.701Z,8.77
2018-12-20T04:25:51.827Z,8.60
2018-12-20T04:28:20.030Z,7.80
2018-12-20T04:30:48.306Z,7.83
2018-12-20T04:33:16.661Z,7.30
2018-12-20T04:35:45.237Z,9.87
2018-12-20T04:38:13.421Z,7.20
2018-12-20T04:40:41.554Z,11.83
2018-12-20T04:43:09.682Z,11.33
2018-12-20T04:45:46.447Z,7.00
2018-12-20T04:48:08.096Z,6.80
2018-12-20T04:50:36.444Z,8.00
2018-12-20T04:53:05.047Z,11.63
2018-12-20T04:55:33.431Z,9.67
2018-12-20T04:58:01.780Z,15.13
2018-12-20T05:00:30.137Z,13.20
2018-12-20T05:02:58.437Z,15.60
2018-12-20T05:05:26.679Z,10.80
2018-12-20T05:07:54.843Z,11.93
2018-12-20T05:10:23.082Z,12.77
2018-12-20T05:12:51.205Z,13.13
2018-12-20T05:15:19.398Z,11.97
2018-12-20T05:17:47.557Z,11.90
2018-12-20T05:20:16.027Z,12.97
2018-12-20T05:22:44.549Z,12.93
2018-12-20T05:25:12.823Z,11.53
2018-12-20T05:27:41.012Z,11.53
2018-12-20T05:30:09.303Z,10.53
2018-12-20T05:32:37.546Z,10.80
2018-12-20T05:35:05.940Z,13.37
2018-12-20T05:37:34.147Z,11.83
2018-12-20T05:40:02.525Z,15.30
2018-12-20T05:42:30.920Z,13.07
2018-12-20T05:44:59.092Z,11.60
2018-12-20T05:47:27.462Z,13.13
2018-12-20T05:49:55.721Z,11.77
2018-12-20T05:52:24.071Z,8.77
2018-12-20T05:54:52.349Z,9.20
2018-12-20T05:57:20.526Z,9.87
2018-12-20T05:59:48.637Z,11.20
2018-12-20T06:02:17.148Z,11.27
2018-12-20T06:04:45.421Z,13.33
2018-12-20T06:07:13.718Z,11.37
2018-12-20T06:09:41.941Z,7.00
2018-12-20T06:12:10.227Z,8.60
2018-12-20T06:14:38.474Z,7.27
2018-12-20T06:17:06.631Z,6.97
2018-12-20T06:19:35.001Z,6.60
2018-12-20T06:22:03.542Z,5.57
2018-12-20T06:24:31.781Z,4.43
2018-12-20T06:26:59.959Z,4.30
2018-12-20T06:29:29.209Z,4.03
2018-12-20T06:31:57.334Z,4.30
2018-12-20T06:34:25.452Z,4.80
2018-12-20T06:36:53.706Z,4.40
2018-12-20T06:39:21.973Z,4.83
2018-12-20T06:41:50.108Z,6.50
2018-12-20T06:44:18.289Z,6.23
2018-12-20T06:46:51.500Z,9.03
2018-12-20T06:49:19.792Z,7.87
2018-12-20T06:51:47.993Z,9.07
2018-12-20T06:54:16.369Z,8.97
2018-12-20T06:56:44.485Z,10.20
2018-12-20T06:59:12.662Z,15.63
2018-12-20T07:01:40.902Z,12.50
2018-12-20T07:04:09.014Z,9.50
2018-12-20T07:06:37.457Z,10.47
2018-12-20T07:09:08.470Z,12.07
2018-12-20T07:11:36.866Z,11.20
2018-12-20T07:14:05.046Z,11.63
2018-12-20T07:16:33.297Z,10.73
2018-12-20T07:19:01.508Z,10.03
2018-12-20T07:21:29.717Z,11.20
2018-12-20T07:23:57.833Z,10.83
2018-12-20T07:26:26.178Z,9.40
2018-12-20T07:28:54.353Z,10.40
2018-12-20T07:31:22.547Z,11.73
2018-12-20T07:33:51.473Z,10.37
2018-12-20T07:36:20.125Z,13.43
2018-12-20T07:38:48.244Z,15.87
2018-12-20T07:41:16.555Z,13.70
2018-12-20T07:43:44.687Z,11.57
2018-12-20T07:46:12.960Z,10.60
2018-12-20T07:48:41.076Z,12.10
2018-12-20T07:51:09.264Z,10.87
2018-12-20T07:53:37.491Z,13.00
2018-12-20T07:56:05.740Z,11.47
2018-12-20T07:58:33.888Z,11.90
2018-12-20T08:01:02.228Z,11.43
2018-12-20T08:03:30.362Z,10.47
2018-12-20T08:05:58.550Z,10.57
2018-12-20T08:08:26.693Z,10.17
2018-12-20T08:10:54.870Z,9.80
2018-12-20T08:13:23.002Z,8.23
2018-12-20T08:15:51.262Z,9.63
2018-12-20T08:18:19.385Z,8.07
2018-12-20T08:20:47.494Z,7.63
2018-12-20T08:23:15.605Z,8.43
2018-12-20T08:25:43.781Z,8.07
2018-12-20T08:28:11.985Z,10.40
2018-12-20T08:30:40.175Z,8.20
2018-12-20T08:33:08.282Z,9.13
2018-12-20T08:35:36.410Z,9.93
2018-12-20T08:38:04.748Z,10.00
2018-12-20T08:40:32.874Z,12.17
2018-12-20T08:43:01.077Z,12.47
2018-12-20T08:45:29.290Z,9.80
2018-12-20T08:47:57.394Z,12.93
2018-12-20T08:50:25.588Z,9.60
2018-12-20T08:52:53.698Z,9.47
2018-12-20T08:55:21.821Z,8.83
2018-12-20T08:57:49.997Z,9.60
2018-12-20T09:00:18.173Z,11.80
2018-12-20T09:02:46.281Z,8.93
2018-12-20T09:05:14.461Z,14.00
2018-12-20T09:07:42.654Z,14.10
2018-12-20T09:10:10.830Z,12.77
2018-12-20T09:12:39.035Z,10.23
2018-12-20T09:15:07.290Z,9.27
2018-12-20T09:17:35.467Z,10.57
2018-12-20T09:20:04.403Z,10.77
2018-12-20T09:22:32.526Z,11.93
2018-12-20T09:25:00.937Z,12.07
2018-12-20T09:27:29.134Z,13.23
2018-12-20T09:29:57.280Z,11.30
2018-12-20T09:32:25.688Z,10.77
2018-12-20T09:34:53.845Z,12.17
2018-12-20T09:37:22.021Z,14.17
2018-12-20T09:39:50.146Z,12.97
2018-12-20T09:42:18.279Z,11.10
2018-12-20T09:44:46.853Z,12.60
2018-12-20T09:47:20.506Z,12.47
2018-12-20T09:49:49.718Z,10.93
2018-12-20T09:52:17.849Z,10.73
2018-12-20T09:54:45.991Z,11.43
2018-12-20T09:57:14.129Z,12.73
2018-12-20T09:59:42.337Z,10.40
2018-12-20T10:02:10.511Z,9.97
2018-12-20T10:04:38.678Z,11.03
2018-12-20T10:07:06.811Z,9.73
2018-12-20T10:09:35.000Z,11.00
2018-12-20T10:12:03.266Z,10.63
2018-12-20T10:14:31.494Z,10.57
2018-12-20T10:16:59.706Z,11.07
2018-12-20T10:19:27.889Z,11.20
2018-12-20T10:21:56.005Z,9.57
2018-12-20T10:24:24.189Z,12.10
2018-12-20T10:26:52.378Z,9.00
2018-12-20T10:29:20.548Z,15.80
2018-12-20T10:31:48.678Z,13.43
2018-12-20T10:34:16.799Z,9.97
2018-12-20T10:36:44.985Z,9.90
2018-12-20T10:39:13.199Z,10.60
2018-12-20T10:41:41.403Z,12.67
2018-12-20T10:44:09.530Z,29.67
2018-12-20T10:46:37.777Z,13.73
2018-12-20T10:49:05.989Z,13.93
2018-12-20T10:51:34.187Z,11.90
2018-12-20T10:54:02.425Z,14.53
2018-12-20T10:56:30.615Z,11.67
2018-12-20T10:58:58.874Z,11.23
2018-12-20T11:01:32.622Z,12.97
2018-12-20T11:04:06.160Z,11.30
2018-12-20T11:06:39.737Z,12.10
2018-12-20T11:09:13.937Z,11.07
2018-12-20T11:11:47.511Z,13.80
2018-12-20T11:14:16.163Z,14.20
2018-12-20T11:16:44.370Z,13.27
2018-12-20T11:19:12.633Z,11.80
2018-12-20T11:21:40.825Z,11.33
2018-12-20T11:24:08.937Z,9.47
2018-12-20T11:26:37.155Z,11.47
2018-12-20T11:29:05.361Z,10.80
2018-12-20T11:31:33.500Z,7.83
2018-12-20T11:34:01.702Z,10.10
2018-12-20T11:36:29.811Z,9.00
2018-12-20T11:38:57.944Z,8.90
2018-12-20T11:41:26.213Z,7.70
2018-12-20T11:43:54.309Z,8.90
2018-12-20T11:46:22.421Z,7.37
2018-12-20T11:48:50.547Z,6.13
2018-12-20T11:51:18.634Z,7.10
2018-12-20T11:53:46.902Z,5.93
2018-12-20T11:56:15.161Z,6.33
2018-12-20T11:58:43.337Z,6.47
2018-12-20T12:01:11.513Z,6.17
2018-12-20T12:03:39.622Z,5.27
2018-12-20T12:06:07.781Z,8.07
2018-12-20T12:08:35.912Z,7.70
2018-12-20T12:11:04.097Z,7.80
2018-12-20T12:13:32.273Z,10.30
2018-12-20T12:16:00.447Z,7.13
2018-12-20T12:18:28.806Z,8.07
2018-12-20T12:20:56.976Z,9.57
2018-12-20T12:23:25.084Z,9.53
2018-12-20T12:25:53.200Z,11.93
2018-12-20T12:28:21.314Z,6.50
2018-12-20T12:30:49.496Z,9.17
2018-12-20T12:33:17.776Z,9.77
2018-12-20T12:35:45.878Z,10.70
2018-12-20T12:38:14.074Z,11.37
2018-12-20T12:40:42.225Z,10.17
2018-12-20T12:43:10.514Z,8.57
2018-12-20T12:45:38.825Z,9.53
2018-12-20T12:48:07.029Z,10.57
2018-12-20T12:50:35.205Z,9.80
2018-12-20T12:53:03.381Z,6.83
2018-12-20T12:55:31.489Z,8.30
2018-12-20T12:58:04.551Z,7.30
2018-12-20T13:00:29.995Z,22.87
2018-12-20T13:02:58.192Z,10.67
2018-12-20T13:05:26.388Z,9.00
2018-12-20T13:07:54.484Z,6.83
2018-12-20T13:10:22.665Z,8.20
2018-12-20T13:12:50.771Z,8.40
2018-12-20T13:15:18.953Z,6.90
2018-12-20T13:17:47.278Z,5.77
2018-12-20T13:20:16.461Z,7.87
2018-12-20T13:22:45.656Z,10.17
2018-12-20T13:25:14.204Z,7.00
2018-12-20T13:27:42.440Z,8.43
2018-12-20T13:30:11.952Z,7.80
2018-12-20T13:32:40.118Z,6.30
2018-12-20T13:35:08.300Z,7.23
2018-12-20T13:37:36.397Z,7.13
2018-12-20T13:40:05.251Z,7.53
2018-12-20T13:42:33.429Z,9.27
2018-12-20T13:45:01.674Z,10.37
2018-12-20T13:47:29.853Z,9.27
2018-12-20T13:49:57.967Z,8.37
2018-12-20T13:52:26.148Z,7.93
2018-12-20T13:54:54.383Z,7.27
2018-12-20T13:57:22.548Z,10.40
2018-12-20T13:59:50.660Z,6.73
2018-12-20T14:02:18.896Z,7.10
2018-12-20T14:04:47.027Z,8.30
2018-12-20T14:07:15.314Z,8.00
2018-12-20T14:09:43.423Z,6.83
2018-12-20T14:12:11.678Z,7.20
2018-12-20T14:14:39.982Z,5.43
2018-12-20T14:17:08.113Z,8.40
2018-12-20T14:19:36.301Z,6.70
2018-12-20T14:22:04.567Z,6.17
2018-12-20T14:24:32.747Z,6.73
2018-12-20T14:27:00.860Z,6.27
2018-12-20T14:29:29.082Z,9.30
2018-12-20T14:31:57.213Z,6.43
2018-12-20T14:34:25.448Z,8.20
2018-12-20T14:36:53.634Z,7.67
2018-12-20T14:39:21.905Z,7.03
2018-12-20T14:41:50.225Z,7.80
2018-12-20T14:44:18.400Z,4.90
2018-12-20T14:46:46.629Z,5.60
2018-12-20T14:49:14.717Z,7.23
2018-12-20T14:51:42.994Z,5.70
2018-12-20T14:54:11.165Z,5.73
2018-12-20T14:56:39.376Z,5.93
2018-12-20T14:59:07.572Z,4.83
2018-12-20T15:01:35.752Z,5.03
2018-12-20T15:04:03.924Z,6.03
2018-12-20T15:06:32.112Z,4.30
2018-12-20T15:09:00.220Z,5.80
2018-12-20T15:11:28.391Z,5.00
2018-12-20T15:13:56.629Z,4.50
2018-12-20T15:16:24.737Z,5.77
2018-12-20T15:18:52.930Z,4.10
2018-12-20T15:21:21.088Z,5.13
2018-12-20T15:23:49.326Z,7.60
2018-12-20T15:26:17.449Z,4.83
2018-12-20T15:28:45.559Z,3.83
2018-12-20T15:31:13.736Z,3.67
2018-12-20T15:33:41.969Z,3.70
2018-12-20T15:36:10.155Z,3.93
2018-12-20T15:38:38.328Z,7.17
2018-12-20T15:41:06.611Z,3.03
2018-12-20T15:43:34.782Z,7.60
2018-12-20T15:46:03.036Z,3.90
2018-12-20T15:48:31.310Z,3.17
2018-12-20T15:50:59.487Z,7.40
2018-12-20T15:53:27.869Z,3.47
2018-12-20T15:55:56.058Z,3.13
2018-12-20T15:58:24.251Z,2.80
2018-12-20T16:00:52.493Z,4.47
2018-12-20T16:03:20.685Z,3.10
2018-12-20T16:05:48.794Z,2.63
2018-12-20T16:08:17.766Z,2.87
2018-12-20T16:10:45.856Z,3.50
2018-12-20T16:13:13.961Z,3.27
2018-12-20T16:15:42.184Z,4.20
2018-12-20T16:18:10.439Z,8.10
2018-12-20T16:20:38.542Z,2.87
2018-12-20T16:23:06.803Z,3.07
2018-12-20T16:25:34.973Z,2.87
2018-12-20T16:28:03.112Z,2.40
2018-12-20T16:30:31.299Z,3.50
2018-12-20T16:32:59.540Z,2.57
2018-12-20T16:35:27.733Z,3.30
2018-12-20T16:37:55.916Z,2.77
2018-12-20T16:40:24.086Z,3.20
2018-12-20T16:42:52.201Z,4.50
2018-12-20T16:45:20.327Z,2.90
2018-12-20T16:47:48.534Z,2.70
2018-12-20T16:50:16.810Z,2.73
2018-12-20T16:52:44.992Z,3.20
2018-12-20T16:55:13.106Z,2.77
2018-12-20T16:57:41.584Z,3.30
2018-12-20T17:00:11.510Z,3.03
2018-12-20T17:02:39.697Z,4.13
2018-12-20T17:05:07.882Z,3.20
2018-12-20T17:07:36.061Z,2.80
2018-12-20T17:10:04.525Z,3.27
2018-12-20T17:12:32.704Z,3.40
2018-12-20T17:15:00.942Z,3.00
2018-12-20T17:17:29.078Z,6.80
2018-12-20T17:19:57.301Z,3.27
2018-12-20T17:22:25.546Z,3.77
2018-12-20T17:24:53.848Z,4.63
2018-12-20T17:27:22.077Z,7.73
2018-12-20T17:29:50.189Z,3.93
2018-12-20T17:32:18.354Z,4.40
2018-12-20T17:34:46.455Z,3.57
2018-12-20T17:37:14.612Z,5.23
2018-12-20T17:39:42.734Z,4.93
2018-12-20T17:42:10.904Z,3.30
2018-12-20T17:44:39.161Z,3.20
2018-12-20T17:47:07.402Z,4.97
2018-12-20T17:49:35.510Z,3.50
2018-12-20T17:52:03.674Z,3.87
2018-12-20T17:54:31.858Z,4.70
2018-12-20T17:57:00.033Z,3.70
2018-12-20T17:59:28.150Z,4.40
2018-12-20T18:01:56.262Z,5.03
2018-12-20T18:04:24.373Z,6.43
2018-12-20T18:06:52.545Z,3.80
2018-12-20T18:09:20.760Z,5.40
2018-12-20T18:11:48.874Z,3.00
2018-12-20T18:14:17.089Z,3.73
2018-12-20T18:16:45.244Z,2.60
2018-12-20T18:19:13.416Z,3.40
2018-12-20T18:21:41.539Z,3.50
2018-12-20T18:24:09.650Z,4.93
2018-12-20T18:26:37.826Z,3.37
2018-12-20T18:29:06.011Z,3.47
2018-12-20T18:31:34.274Z,4.70
2018-12-20T18:34:02.454Z,4.80
2018-12-20T18:36:30.619Z,3.57
2018-12-20T18:38:58.826Z,9.70
2018-12-20T18:41:26.955Z,3.83
2018-12-20T18:43:55.198Z,2.97
2018-12-20T18:46:23.392Z,4.13
2018-12-20T18:48:51.656Z,4.00
2018-12-20T18:51:19.855Z,3.03
2018-12-20T18:53:47.983Z,7.43
2018-12-20T18:56:16.178Z,3.63
2018-12-20T18:58:44.356Z,4.03
2018-12-20T19:01:12.548Z,3.73
2018-12-20T19:03:40.642Z,3.93
2018-12-20T19:06:08.843Z,2.97
2018-12-20T19:08:37.003Z,3.43
2018-12-20T19:11:05.223Z,3.37
2018-12-20T19:13:33.398Z,3.03
2018-12-20T19:16:01.593Z,2.77
2018-12-20T19:18:29.731Z,3.40
2018-12-20T19:20:57.854Z,3.40
2018-12-20T19:23:26.036Z,3.17
2018-12-20T19:25:54.244Z,6.20
2018-12-20T19:28:22.407Z,3.10
2018-12-20T19:30:50.520Z,3.27
2018-12-20T19:33:18.704Z,2.70
2018-12-20T19:35:46.890Z,2.10
2018-12-20T19:38:20.499Z,2.50
2018-12-20T19:40:45.290Z,1.90
2018-12-20T19:43:13.412Z,1.40
2018-12-20T19:45:46.029Z,1.77
2018-12-20T19:48:11.792Z,2.43
2018-12-20T19:50:39.975Z,2.37
2018-12-20T19:53:09.127Z,1.63
2018-12-20T19:55:37.230Z,1.57
2018-12-20T19:58:05.387Z,2.10
2018-12-20T20:00:33.502Z,1.53
2018-12-20T20:03:01.666Z,3.03
2018-12-20T20:05:29.905Z,1.20
2018-12-20T20:07:58.188Z,1.23
2018-12-20T20:10:26.292Z,2.27
2018-12-20T20:12:54.462Z,1.27
2018-12-20T20:15:22.725Z,1.20
2018-12-20T20:17:50.818Z,0.90
2018-12-20T20:20:19.103Z,1.37
2018-12-20T20:22:47.350Z,1.17
2018-12-20T20:25:15.512Z,2.17
2018-12-20T20:27:43.719Z,1.43
2018-12-20T20:30:14.064Z,3.13
2018-12-20T20:32:42.243Z,3.53
2018-12-20T20:35:10.639Z,1.60
2018-12-20T20:37:38.855Z,3.20
2018-12-20T20:40:09.029Z,2.10
2018-12-20T20:42:37.222Z,3.27
2018-12-20T20:45:06.184Z,6.10
2018-12-20T20:47:34.454Z,2.50
2018-12-20T20:50:02.691Z,2.27
2018-12-20T20:52:30.894Z,2.27
2018-12-20T20:54:59.009Z,2.53
2018-12-20T20:57:27.238Z,4.00
2018-12-20T20:59:55.477Z,2.30
2018-12-20T21:02:23.598Z,2.93
2018-12-20T21:04:51.695Z,3.00
2018-12-20T21:07:19.981Z,2.70
2018-12-20T21:09:48.142Z,2.90
2018-12-20T21:12:22.810Z,3.03
2018-12-20T21:14:52.425Z,5.10
2018-12-20T21:17:16.646Z,4.37
2018-12-20T21:19:44.771Z,4.20
2018-12-20T21:22:13.134Z,4.67
2018-12-20T21:24:41.273Z,3.03
2018-12-20T21:27:09.615Z,2.80
2018-12-20T21:29:37.814Z,2.50
2018-12-20T21:32:06.071Z,4.03
2018-12-20T21:34:34.258Z,3.10
2018-12-20T21:37:02.466Z,3.00
2018-12-20T21:39:30.694Z,3.83
2018-12-20T21:41:58.873Z,3.67
2018-12-20T21:44:26.988Z,6.27
2018-12-20T21:46:55.218Z,6.10
2018-12-20T21:49:23.334Z,5.10
2018-12-20T21:51:51.439Z,5.13
2018-12-20T21:54:19.677Z,5.27
2018-12-20T21:56:47.966Z,5.23
2018-12-20T21:59:16.149Z,3.50
2018-12-20T22:01:44.315Z,5.30
2018-12-20T22:04:12.477Z,6.73
2018-12-20T22:06:40.585Z,4.90
2018-12-20T22:09:08.711Z,3.43
2018-12-20T22:11:36.810Z,4.67
2018-12-20T22:14:04.934Z,4.07
2018-12-20T22:16:33.037Z,4.57
2018-12-20T22:19:01.208Z,4.33
2018-12-20T22:21:29.453Z,5.83
2018-12-20T22:23:57.653Z,4.70
2018-12-20T22:26:25.907Z,5.40
2018-12-20T22:28:54.199Z,5.60
2018-12-20T22:31:22.423Z,5.30
2018-12-20T22:33:50.595Z,4.13
2018-12-20T22:36:18.711Z,3.87
2018-12-20T22:38:46.901Z,4.10
2018-12-20T22:41:15.253Z,4.40
2018-12-20T22:43:43.372Z,3.03
2018-12-20T22:46:11.465Z,3.20
2018-12-20T22:48:39.598Z,2.50
2018-12-20T22:51:08.545Z,2.57
2018-12-20T22:53:36.657Z,2.30
2018-12-20T22:56:04.829Z,1.90
2018-12-20T22:58:33.030Z,1.83
2018-12-20T23:01:03.242Z,2.23
2018-12-20T23:03:31.452Z,1.80
2018-12-20T23:06:01.412Z,1.37
2018-12-20T23:08:29.701Z,1.27
2018-12-20T23:10:57.794Z,1.53
2018-12-20T23:13:25.960Z,1.90
2018-12-20T23:15:54.184Z,2.33
2018-12-20T23:18:22.301Z,2.80
2018-12-20T23:20:50.474Z,2.70
2018-12-20T23:23:18.622Z,2.83
2018-12-20T23:25:46.805Z,2.53
2018-12-20T23:28:14.909Z,2.77
2018-12-20T23:30:43.214Z,7.43
2018-12-20T23:33:11.386Z,3.70
2018-12-20T23:35:39.494Z,3.40
2018-12-20T23:38:07.638Z,3.10
2018-12-20T23:40:35.720Z,4.03
2018-12-20T23:43:03.953Z,3.00
2018-12-20T23:45:32.053Z,3.60
2018-12-20T23:48:00.358Z,3.97
2018-12-20T23:50:28.573Z,3.43
2018-12-20T23:52:56.678Z,3.70
2018-12-20T23:55:24.922Z,3.80
2018-12-20T23:57:53.224Z,3.03
